Time;durP1;ratioP1;P1;durP2;ratioP2;P2;SDS_P1;SDS_P2;PMS_P1;PMS_P2;Temp;Humidity;BMP_temperature;BMP_pressure;BME280_temperature;BME280_humidity;BME280_pressure;Samples;Min_cycle;Max_cycle;Signal;HPM_P1;HPM_P2
2022/10/13 00:00:42;;;;;;;23.90;13.25;;;;;;;7.41;100.00;101757.66;10352947;28;20138;-77
2022/10/13 00:05:47;;;;;;;22.88;14.40;;;;;;;7.42;100.00;101756.88;10345044;28;20050;-79
2022/10/13 00:10:49;;;;;;;31.95;15.65;;;;;;;7.42;100.00;101747.38;10361605;28;20088;-80
2022/10/13 00:15:49;;;;;;;25.30;13.95;;;;;;;7.47;100.00;101743.41;10362510;28;20034;-80
2022/10/13 00:20:50;;;;;;;24.02;13.25;;;;;;;7.49;100.00;101740.91;10360607;28;20546;-80
2022/10/13 00:25:51;;;;;;;29.38;14.02;;;;;;;7.53;100.00;101739.44;10362125;28;20042;-81
2022/10/13 00:30:51;;;;;;;29.08;12.80;;;;;;;7.61;100.00;101720.97;10361641;28;20467;-80
2022/10/13 00:35:52;;;;;;;28.08;15.23;;;;;;;7.69;100.00;101720.63;10342072;28;20478;-81
2022/10/13 00:40:53;;;;;;;27.92;14.75;;;;;;;7.74;100.00;101714.97;10327963;28;20048;-81
2022/10/13 00:45:57;;;;;;;34.15;14.38;;;;;;;7.84;100.00;101721.75;10360344;28;20113;-82
2022/10/13 00:50:57;;;;;;;18.40;11.80;;;;;;;7.89;100.00;101722.97;10360388;28;20113;-81
2022/10/13 00:55:58;;;;;;;23.90;12.63;;;;;;;7.93;100.00;101711.97;10361820;28;20040;-81
2022/10/13 01:00:58;;;;;;;33.17;14.23;;;;;;;7.92;100.00;101714.50;10322804;28;20038;-79
2022/10/13 01:06:01;;;;;;;24.38;12.95;;;;;;;7.92;100.00;101715.38;10352335;28;20494;-82
2022/10/13 01:11:19;;;;;;;24.27;15.25;;;;;;;7.91;100.00;101712.69;10313710;28;20060;-81
2022/10/13 01:17:07;;;;;;;28.80;13.88;;;;;;;7.90;100.00;101709.16;10342296;28;20116;-81
2022/10/13 01:22:36;;;;;;;23.30;12.25;;;;;;;7.87;100.00;101706.31;10346705;28;20045;-81
2022/10/13 01:27:55;;;;;;;27.08;12.90;;;;;;;7.92;100.00;101696.25;10359983;28;20421;-82
2022/10/13 01:33:27;;;;;;;21.17;13.27;;;;;;;7.93;100.00;101692.84;10356057;28;20130;-82
2022/10/13 01:38:47;;;;;;;26.60;14.25;;;;;;;8.03;100.00;101686.56;10335153;28;20046;-81
2022/10/13 01:43:51;;;;;;;25.17;15.00;;;;;;;7.99;100.00;101685.47;10339638;28;20125;-82
2022/10/13 01:48:53;;;;;;;24.40;13.90;;;;;;;7.98;100.00;101687.94;10325948;28;20049;-81
2022/10/13 01:53:53;;;;;;;41.57;14.97;;;;;;;7.94;100.00;101685.13;10356050;28;20041;-81
2022/10/13 01:58:54;;;;;;;25.50;12.95;;;;;;;7.99;100.00;101684.53;10354343;28;20076;-81
2022/10/13 02:04:11;;;;;;;23.83;11.98;;;;;;;7.97;100.00;101680.91;10318172;28;20377;-81
2022/10/13 02:09:50;;;;;;;24.05;13.40;;;;;;;7.94;100.00;101674.69;10323144;28;20089;-81
2022/10/13 02:14:50;;;;;;;22.38;12.45;;;;;;;7.90;100.00;101666.56;10241358;28;20101;-82
2022/10/13 02:19:51;;;;;;;22.45;11.75;;;;;;;7.93;100.00;101667.66;10339952;28;20038;-82
2022/10/13 02:24:51;;;;;;;21.77;11.82;;;;;;;7.93;100.00;101667.66;10333153;28;20061;-81
2022/10/13 02:29:55;;;;;;;21.25;11.88;;;;;;;7.92;100.00;101660.63;10342737;28;20033;-82
2022/10/13 02:34:56;;;;;;;20.73;12.32;;;;;;;7.88;100.00;101650.78;10343419;28;20034;-81
2022/10/13 02:39:56;;;;;;;26.58;14.90;;;;;;;7.92;100.00;101641.50;10335488;28;20196;-82
2022/10/13 02:44:57;;;;;;;24.85;14.20;;;;;;;7.89;100.00;101652.59;10364260;28;20099;-82
2022/10/13 02:49:57;;;;;;;27.25;12.30;;;;;;;7.86;100.00;101635.84;10365922;28;20049;-82
2022/10/13 02:54:58;;;;;;;28.23;13.63;;;;;;;7.89;100.00;101639.56;10364242;28;20062;-82
2022/10/13 02:59:58;;;;;;;32.70;15.68;;;;;;;7.97;100.00;101628.78;10364713;28;20095;-81
2022/10/13 03:04:59;;;;;;;23.95;14.20;;;;;;;7.94;100.00;101626.88;10366407;28;20115;-81
2022/10/13 03:10:00;;;;;;;25.73;13.55;;;;;;;7.90;100.00;101624.84;10365226;28;20041;-82
2022/10/13 03:15:01;;;;;;;30.02;13.07;;;;;;;7.91;100.00;101624.06;10338543;28;20169;-81
2022/10/13 03:20:01;;;;;;;24.38;14.02;;;;;;;7.97;100.00;101619.28;10323243;28;20100;-81
2022/10/13 03:25:04;;;;;;;28.85;15.38;;;;;;;8.04;100.00;101618.91;10358411;28;20502;-82
2022/10/13 03:30:05;;;;;;;27.50;15.07;;;;;;;8.08;100.00;101622.63;10322330;28;20038;-82
2022/10/13 03:35:06;;;;;;;30.83;14.40;;;;;;;8.09;100.00;101616.59;10357967;28;20030;-85
2022/10/13 03:40:07;;;;;;;30.55;14.98;;;;;;;8.08;100.00;101618.31;10363134;28;20034;-81
2022/10/13 03:45:08;;;;;;;23.88;12.80;;;;;;;8.11;100.00;101615.00;10361442;28;20048;-81
2022/10/13 03:50:09;;;;;;;60.58;27.25;;;;;;;8.14;100.00;101610.00;10346300;28;20120;-80
2022/10/13 03:55:09;;;;;;;40.70;15.93;;;;;;;8.12;100.00;101613.31;10362269;28;20052;-83
2022/10/13 04:00:11;;;;;;;29.00;14.25;;;;;;;8.08;100.00;101601.75;10345269;28;20072;-80
2022/10/13 04:05:11;;;;;;;34.63;15.18;;;;;;;8.12;100.00;101601.16;10362935;28;20398;-82
2022/10/13 04:10:12;;;;;;;34.40;16.20;;;;;;;8.17;100.00;101607.63;10362432;28;20074;-81
2022/10/13 04:15:12;;;;;;;21.75;13.48;;;;;;;8.21;100.00;101604.41;10361091;28;20116;-81
2022/10/13 04:20:13;;;;;;;26.50;15.18;;;;;;;8.32;100.00;101612.06;10362787;28;20164;-81
2022/10/13 04:25:13;;;;;;;29.92;14.30;;;;;;;8.35;100.00;101594.03;10359692;28;20038;-80
2022/10/13 04:30:14;;;;;;;26.48;12.57;;;;;;;8.33;100.00;101596.56;10344104;28;20034;-81
2022/10/13 04:35:14;;;;;;;27.77;12.63;;;;;;;8.34;100.00;101602.66;10356655;28;20371;-81
2022/10/13 04:40:15;;;;;;;23.02;11.38;;;;;;;8.37;100.00;101588.13;10362075;28;20426;-81
2022/10/13 04:45:16;;;;;;;35.33;16.35;;;;;;;8.43;100.00;101587.63;10360842;28;20045;-82
2022/10/13 04:50:16;;;;;;;45.25;18.02;;;;;;;8.48;100.00;101593.19;10359808;28;20524;-81
2022/10/13 04:55:17;;;;;;;33.05;13.82;;;;;;;8.44;100.00;101584.22;10338919;28;20046;-81
2022/10/13 05:00:17;;;;;;;32.95;15.15;;;;;;;8.40;100.00;101581.31;10361286;28;20419;-78
2022/10/13 05:05:18;;;;;;;25.92;15.40;;;;;;;8.39;100.00;101564.75;10343299;28;20052;-80
2022/10/13 05:10:19;;;;;;;31.92;13.93;;;;;;;8.44;100.00;101552.91;10361407;28;20049;-79
2022/10/13 05:15:19;;;;;;;29.40;14.98;;;;;;;8.34;100.00;101556.63;10360808;28;20051;-80
2022/10/13 05:20:20;;;;;;;26.02;14.65;;;;;;;8.32;100.00;101550.41;10357539;28;20041;-80
2022/10/13 05:25:21;;;;;;;29.50;15.52;;;;;;;8.35;100.00;101540.19;10358373;28;20053;-80
2022/10/13 05:30:21;;;;;;;25.67;15.05;;;;;;;8.48;100.00;101527.97;10360034;28;20609;-78
2022/10/13 05:35:22;;;;;;;32.22;15.88;;;;;;;8.47;100.00;101527.03;10357618;28;20048;-77
2022/10/13 05:40:22;;;;;;;27.88;17.30;;;;;;;8.55;100.00;101534.50;10327477;28;20065;-77
2022/10/13 05:45:23;;;;;;;34.25;20.77;;;;;;;8.64;100.00;101528.22;10358512;28;20051;-78
2022/10/13 05:50:23;;;;;;;42.17;26.30;;;;;;;8.72;100.00;101533.03;10355144;28;20045;-79
2022/10/13 05:55:24;;;;;;;37.13;20.23;;;;;;;8.78;100.00;101536.94;10340869;28;20045;-78
2022/10/13 06:00:24;;;;;;;27.95;14.27;;;;;;;8.84;100.00;101543.34;10356309;28;20512;-78
2022/10/13 06:05:25;;;;;;;40.75;21.75;;;;;;;8.89;100.00;101531.50;10356858;28;20120;-79
2022/10/13 06:10:26;;;;;;;38.58;20.83;;;;;;;8.94;100.00;101524.88;10356725;28;20466;-78
2022/10/13 06:15:27;;;;;;;35.38;15.73;;;;;;;9.00;100.00;101533.09;10342209;28;20041;-80
2022/10/13 06:20:27;;;;;;;23.73;14.52;;;;;;;9.04;100.00;101535.09;10357294;28;20505;-79
2022/10/13 06:25:28;;;;;;;27.17;12.95;;;;;;;9.04;100.00;101545.56;10332447;28;20113;-79
2022/10/13 06:30:29;;;;;;;30.63;16.98;;;;;;;9.15;100.00;101538.44;10358211;28;20048;-81
2022/10/13 06:35:29;;;;;;;23.55;12.50;;;;;;;9.32;100.00;101533.38;10331591;28;20041;-77
2022/10/13 06:40:30;;;;;;;24.40;13.18;;;;;;;9.50;100.00;101525.78;10357328;28;20069;-80
2022/10/13 06:45:30;;;;;;;30.35;13.65;;;;;;;9.55;100.00;101529.59;10358461;28;20128;-79
2022/10/13 06:50:31;;;;;;;25.83;10.40;;;;;;;9.73;100.00;101532.44;10359597;28;20034;-79
2022/10/13 06:55:31;;;;;;;22.00;14.15;;;;;;;9.79;100.00;101537.13;10333058;28;20041;-80
2022/10/13 07:00:32;;;;;;;30.70;12.30;;;;;;;9.89;100.00;101530.78;10357457;28;20126;-81
2022/10/13 07:05:32;;;;;;;18.88;10.88;;;;;;;10.01;100.00;101534.13;10356453;28;20088;-79
2022/10/13 07:10:33;;;;;;;22.45;11.02;;;;;;;10.10;100.00;101529.47;10358763;28;20041;-79
2022/10/13 07:15:37;;;;;;;20.83;12.45;;;;;;;10.28;100.00;101527.03;10359898;28;20054;-78
2022/10/13 07:20:37;;;;;;;21.27;13.43;;;;;;;10.41;100.00;101531.31;10362832;28;20045;-81
2022/10/13 07:25:39;;;;;;;21.73;11.38;;;;;;;10.49;100.00;101538.72;10364637;28;20073;-81
2022/10/13 07:30:40;;;;;;;25.40;12.18;;;;;;;10.66;100.00;101547.53;10360633;28;20053;-77
2022/10/13 07:35:40;;;;;;;20.52;10.63;;;;;;;10.82;100.00;101545.00;10363095;28;20509;-78
2022/10/13 07:40:41;;;;;;;18.17;9.90;;;;;;;10.97;100.00;101542.38;10364056;28;20065;-78
2022/10/13 07:45:41;;;;;;;18.25;10.80;;;;;;;11.21;100.00;101528.84;10363262;28;20049;-78
2022/10/13 07:50:42;;;;;;;18.90;12.30;;;;;;;11.36;100.00;101533.13;10363745;28;20129;-78
2022/10/13 07:55:42;;;;;;;19.67;8.88;;;;;;;11.39;100.00;101539.44;10362687;28;20103;-78
2022/10/13 08:00:43;;;;;;;21.33;12.30;;;;;;;11.59;100.00;101537.91;10363403;28;20044;-78
2022/10/13 08:05:44;;;;;;;20.75;11.10;;;;;;;11.78;100.00;101532.75;10362958;28;20037;-79
2022/10/13 08:10:44;;;;;;;28.90;12.82;;;;;;;12.02;100.00;101541.94;10362520;28;20069;-78
2022/10/13 08:15:45;;;;;;;27.65;12.88;;;;;;;12.29;97.56;101541.56;10346537;28;20099;-79
2022/10/13 08:20:45;;;;;;;30.15;9.43;;;;;;;12.51;97.13;101532.16;10363301;28;20061;-79
2022/10/13 08:25:46;;;;;;;24.33;10.35;;;;;;;12.68;95.45;101525.16;10352384;28;20521;-80
2022/10/13 08:30:47;;;;;;;15.73;9.82;;;;;;;13.04;93.83;101513.72;10361016;28;20061;-79
2022/10/13 08:35:47;;;;;;;22.83;10.40;;;;;;;13.28;90.37;101515.72;10335782;28;20617;-79
2022/10/13 08:40:48;;;;;;;23.77;11.82;;;;;;;13.55;89.51;101513.50;10359651;28;20057;-78
2022/10/13 08:45:55;;;;;;;17.05;8.25;;;;;;;13.72;88.71;101511.63;10358427;28;20487;-78
2022/10/13 08:50:56;;;;;;;22.17;11.40;;;;;;;13.66;88.79;101508.72;10345418;28;20045;-78
2022/10/13 08:56:13;;;;;;;16.38;9.05;;;;;;;13.51;87.96;101508.94;10341906;28;20038;-78
2022/10/13 09:01:14;;;;;;;21.88;10.68;;;;;;;13.56;87.35;101509.13;10359787;28;20049;-78
2022/10/13 09:06:15;;;;;;;16.70;9.07;;;;;;;13.64;88.75;101505.13;10357901;28;20045;-78
2022/10/13 09:11:15;;;;;;;17.00;9.10;;;;;;;13.87;86.00;101503.53;10361455;28;20277;-78
2022/10/13 09:16:29;;;;;;;20.63;12.65;;;;;;;14.19;85.26;101500.50;10359789;28;20145;-79
2022/10/13 09:21:30;;;;;;;21.63;11.80;;;;;;;14.45;81.69;101490.16;10344368;28;20127;-81
2022/10/13 09:26:30;;;;;;;14.10;8.02;;;;;;;14.78;79.96;101490.69;10358050;28;20125;-79
2022/10/13 09:31:32;;;;;;;21.08;9.45;;;;;;;14.75;81.01;101490.56;10341385;28;20044;-79
2022/10/13 09:36:33;;;;;;;22.90;9.00;;;;;;;14.73;77.82;101491.34;10356311;28;20120;-80
2022/10/13 09:41:33;;;;;;;16.60;8.32;;;;;;;14.64;79.11;101492.72;10357500;28;20041;-80
2022/10/13 09:46:44;;;;;;;15.65;8.60;;;;;;;14.56;79.45;101478.34;10357778;28;20490;-80
2022/10/13 09:51:45;;;;;;;22.67;9.65;;;;;;;14.47;80.03;101475.31;10358445;28;20038;-80
2022/10/13 09:56:48;;;;;;;16.20;8.07;;;;;;;14.25;80.72;101477.06;10356973;28;20052;-79
2022/10/13 10:01:48;;;;;;;17.30;9.52;;;;;;;14.21;80.77;101490.94;10341421;28;20046;-78
2022/10/13 10:06:49;;;;;;;23.55;9.25;;;;;;;13.99;82.44;101476.84;10357704;28;21601;-77
2022/10/13 10:11:50;;;;;;;17.50;8.65;;;;;;;13.84;83.72;101476.16;10357179;28;20402;-78
2022/10/13 10:17:28;;;;;;;17.13;8.82;;;;;;;13.75;84.34;101477.56;10340097;28;20038;-78
2022/10/13 10:22:52;;;;;;;18.00;10.27;;;;;;;13.53;85.78;101470.47;10346304;28;20042;-80
2022/10/13 10:28:05;;;;;;;16.48;10.35;;;;;;;13.49;88.47;101464.16;10324411;28;20363;-79
2022/10/13 10:33:11;;;;;;;21.85;9.57;;;;;;;13.50;89.99;101463.31;10357501;28;20049;-80
2022/10/13 10:38:39;;;;;;;18.13;8.80;;;;;;;13.59;89.77;101457.59;10324661;28;20486;-78
2022/10/13 10:43:46;;;;;;;20.23;10.60;;;;;;;13.47;90.14;101454.41;10359230;28;20052;-80
2022/10/13 10:48:49;;;;;;;16.77;10.38;;;;;;;13.44;90.48;101449.88;10358360;28;20045;-80
2022/10/13 10:54:16;;;;;;;19.38;11.20;;;;;;;13.49;90.80;101452.75;10363314;28;20037;-80
2022/10/13 10:59:39;;;;;;;15.13;8.73;;;;;;;13.57;91.15;101448.72;10363035;28;20490;-79
2022/10/13 11:04:43;;;;;;;20.25;10.68;;;;;;;13.61;90.31;101447.13;10366106;28;20402;-79
2022/10/13 11:09:44;;;;;;;22.27;11.10;;;;;;;13.45;90.32;101450.81;10346547;28;20056;-80
2022/10/13 11:15:01;;;;;;;17.33;8.52;;;;;;;13.32;91.17;101434.44;10362493;28;20042;-80
2022/10/13 11:20:32;;;;;;;15.85;11.20;;;;;;;13.33;91.57;101427.44;10346413;28;20038;-78
2022/10/13 11:25:43;;;;;;;18.95;11.38;;;;;;;13.26;91.43;101426.28;10328820;28;20050;-78
2022/10/13 11:31:05;;;;;;;13.82;10.20;;;;;;;13.24;94.55;101427.03;10330883;28;20097;-78
2022/10/13 11:36:33;;;;;;;20.70;8.57;;;;;;;13.14;95.71;101416.09;10356442;28;20119;-77
2022/10/13 11:42:11;;;;;;;18.10;9.27;;;;;;;13.00;97.69;101404.97;10362833;28;20505;-78
2022/10/13 11:47:52;;;;;;;10.57;7.47;;;;;;;12.93;99.16;101401.13;10362181;28;20042;-77
2022/10/13 11:53:16;;;;;;;20.73;9.60;;;;;;;13.01;100.00;101401.50;10361969;28;20050;-77
2022/10/13 11:58:40;;;;;;;18.92;9.13;;;;;;;13.15;99.58;101388.97;10345012;28;20482;-78
2022/10/13 12:03:44;;;;;;;17.65;9.63;;;;;;;13.17;97.84;101383.81;10344735;28;20464;-77
2022/10/13 12:08:47;;;;;;;23.85;10.88;;;;;;;13.30;96.94;101385.25;10359669;28;20087;-77
2022/10/13 12:13:48;;;;;;;17.40;11.40;;;;;;;13.39;97.66;101377.75;10344475;28;20053;-77
2022/10/13 12:18:48;;;;;;;18.77;9.27;;;;;;;13.40;96.18;101387.44;10359577;28;20034;-77
2022/10/13 12:23:49;;;;;;;17.60;9.35;;;;;;;13.43;99.01;101379.72;10360361;28;20033;-78
2022/10/13 12:28:55;;;;;;;18.67;11.75;;;;;;;13.44;97.91;101383.28;10360420;28;20045;-77
2022/10/13 12:33:59;;;;;;;11.90;7.72;;;;;;;13.25;98.06;101371.91;10343660;28;20157;-77
2022/10/13 12:39:04;;;;;;;13.85;6.22;;;;;;;13.11;100.00;101375.63;10342716;28;20121;-77
2022/10/13 12:44:05;;;;;;;17.35;8.75;;;;;;;13.03;100.00;101373.56;10359059;28;20038;-77
2022/10/13 12:49:07;;;;;;;18.10;9.38;;;;;;;12.99;100.00;101362.81;10342537;28;20034;-78
2022/10/13 12:54:49;;;;;;;24.05;9.30;;;;;;;12.97;100.00;101360.16;10309828;28;20038;-77
2022/10/13 12:59:50;;;;;;;13.85;9.50;;;;;;;12.93;100.00;101361.72;10310627;28;20034;-78
2022/10/13 13:04:50;;;;;;;17.17;10.27;;;;;;;12.98;100.00;101358.41;10341285;28;20168;-79
2022/10/13 13:10:06;;;;;;;15.50;9.77;;;;;;;13.05;100.00;101360.47;10339191;28;20104;-77
2022/10/13 13:15:32;;;;;;;17.77;7.60;;;;;;;13.24;100.00;101362.22;10359241;28;20045;-77
2022/10/13 13:20:33;;;;;;;16.52;9.57;;;;;;;13.44;100.00;101362.25;10358881;28;20481;-79
2022/10/13 13:25:34;;;;;;;17.60;9.33;;;;;;;13.59;100.00;101360.28;10358520;28;20474;-79
2022/10/13 13:30:34;;;;;;;15.93;9.13;;;;;;;13.65;100.00;101352.66;10357446;28;20129;-78
2022/10/13 13:35:35;;;;;;;16.15;10.88;;;;;;;13.75;100.00;101366.19;10358299;28;20551;-78
2022/10/13 13:40:36;;;;;;;22.52;12.10;;;;;;;13.93;100.00;101353.81;10356759;28;20065;-77
2022/10/13 13:45:36;;;;;;;16.98;10.60;;;;;;;14.00;100.00;101351.44;10358257;28;20038;-77
2022/10/13 13:50:37;;;;;;;27.10;11.80;;;;;;;14.01;100.00;101353.22;10356401;28;20050;-78
2022/10/13 13:55:37;;;;;;;20.65;12.40;;;;;;;14.08;100.00;101350.03;10356606;28;20038;-80
2022/10/13 14:00:38;;;;;;;20.10;12.93;;;;;;;13.93;100.00;101347.63;10358312;28;20095;-77
2022/10/13 14:05:39;;;;;;;74.70;39.92;;;;;;;13.65;100.00;101344.75;10357609;28;20045;-80
2022/10/13 14:10:40;;;;;;;23.93;14.37;;;;;;;13.47;100.00;101343.97;10354312;28;20050;-79
2022/10/13 14:15:40;;;;;;;34.28;14.60;;;;;;;13.31;100.00;101347.59;10356761;28;20133;-78
2022/10/13 14:20:41;;;;;;;28.92;16.98;;;;;;;13.16;100.00;101348.72;10358315;28;20095;-79
2022/10/13 14:25:42;;;;;;;25.63;15.52;;;;;;;13.07;100.00;101343.06;10363804;28;20053;-79
2022/10/13 14:30:42;;;;;;;26.42;14.57;;;;;;;13.01;100.00;101345.41;10364577;28;20065;-79
2022/10/13 14:35:43;;;;;;;21.65;13.90;;;;;;;12.87;100.00;101339.53;10365678;28;20049;-78
2022/10/13 14:40:43;;;;;;;28.05;14.70;;;;;;;12.71;100.00;101333.56;10337292;28;20132;-79
2022/10/13 14:45:44;;;;;;;24.48;17.10;;;;;;;12.60;100.00;101335.69;10363978;28;20033;-80
2022/10/13 14:50:44;;;;;;;27.02;14.68;;;;;;;12.46;100.00;101334.13;10365566;28;20124;-80
2022/10/13 14:55:45;;;;;;;38.47;19.15;;;;;;;12.39;100.00;101345.16;10364450;28;20068;-79
2022/10/13 15:00:45;;;;;;;29.80;17.90;;;;;;;12.37;100.00;101338.94;10364157;28;20042;-79
2022/10/13 15:05:46;;;;;;;32.67;19.70;;;;;;;12.48;100.00;101332.47;10363912;28;20038;-79
2022/10/13 15:10:46;;;;;;;31.83;19.52;;;;;;;12.54;100.00;101335.41;10362799;28;20054;-78
2022/10/13 15:15:47;;;;;;;27.65;18.15;;;;;;;12.53;100.00;101320.47;10363440;28;20223;-80
2022/10/13 15:20:50;;;;;;;33.85;21.63;;;;;;;12.65;100.00;101320.16;10363571;28;20487;-80
2022/10/13 15:25:53;;;;;;;28.67;17.48;;;;;;;12.68;100.00;101320.31;10361962;28;20096;-80
2022/10/13 15:30:53;;;;;;;35.42;17.95;;;;;;;12.62;100.00;101313.03;10362763;28;20038;-78
2022/10/13 15:35:54;;;;;;;27.38;17.30;;;;;;;12.58;100.00;101311.09;10361565;28;20253;-78
2022/10/13 15:41:01;;;;;;;34.15;18.00;;;;;;;12.51;100.00;101314.25;10353023;28;20046;-79
2022/10/13 15:46:04;;;;;;;31.50;19.17;;;;;;;12.45;100.00;101313.97;10360582;28;20037;-79
2022/10/13 15:51:08;;;;;;;27.52;19.00;;;;;;;12.40;100.00;101313.75;10344683;28;20445;-80
2022/10/13 15:56:09;;;;;;;36.28;21.75;;;;;;;12.37;100.00;101310.06;10342280;28;20180;-79
2022/10/13 16:01:10;;;;;;;29.83;19.13;;;;;;;12.30;100.00;101315.03;10360264;28;20379;-79
2022/10/13 16:06:12;;;;;;;33.00;19.33;;;;;;;12.23;100.00;101307.69;10361384;28;20409;-80
2022/10/13 16:11:14;;;;;;;36.35;18.20;;;;;;;12.22;100.00;101310.25;10354893;28;20498;-83
2022/10/13 16:16:15;;;;;;;25.38;17.23;;;;;;;12.14;100.00;101308.16;10361178;28;20034;-80
2022/10/13 16:21:18;;;;;;;33.45;19.80;;;;;;;12.08;100.00;101297.38;10334836;28;20133;-80
2022/10/13 16:26:19;;;;;;;30.55;19.75;;;;;;;12.06;100.00;101300.72;10353834;28;20036;-80
2022/10/13 16:31:27;;;;;;;28.52;18.10;;;;;;;12.02;100.00;101302.31;10346566;28;20042;-79
2022/10/13 16:36:28;;;;;;;30.02;19.33;;;;;;;12.01;100.00;101309.28;10347360;28;20052;-79
2022/10/13 16:41:28;;;;;;;30.45;19.33;;;;;;;11.97;100.00;101301.16;10358989;28;20056;-81
2022/10/13 16:46:29;;;;;;;41.75;23.95;;;;;;;11.92;100.00;101307.91;10352461;28;20041;-82
2022/10/13 16:51:30;;;;;;;40.65;27.55;;;;;;;11.97;100.00;101304.69;10336867;28;20801;-80
2022/10/13 16:56:30;;;;;;;38.97;25.58;;;;;;;11.94;100.00;101311.50;10351657;28;20188;-81
2022/10/13 17:01:32;;;;;;;36.20;22.58;;;;;;;11.96;100.00;101309.88;10344395;28;20103;-78
2022/10/13 17:06:33;;;;;;;47.43;26.40;;;;;;;11.89;100.00;101316.50;10356787;28;20057;-81
2022/10/13 17:11:34;;;;;;;37.17;24.48;;;;;;;11.87;100.00;101323.41;10357253;28;20517;-82
2022/10/13 17:16:34;;;;;;;50.88;29.50;;;;;;;11.81;100.00;101320.47;10340983;28;20042;-80
2022/10/13 17:21:35;;;;;;;41.33;27.92;;;;;;;11.77;100.00;101326.41;10357385;28;20121;-83
2022/10/13 17:26:36;;;;;;;45.38;28.08;;;;;;;11.73;100.00;101331.47;10356663;28;20121;-79
2022/10/13 17:31:36;;;;;;;43.67;28.27;;;;;;;11.71;100.00;101338.38;10350954;28;20038;-79
2022/10/13 17:36:37;;;;;;;44.13;30.30;;;;;;;11.73;100.00;101346.34;10355280;28;20157;-81
2022/10/13 17:41:37;;;;;;;44.35;25.35;;;;;;;11.68;100.00;101348.69;10359599;28;20041;-80
2022/10/13 17:46:38;;;;;;;42.85;29.42;;;;;;;11.68;100.00;101358.31;10355636;28;20041;-81
2022/10/13 17:51:42;;;;;;;45.97;27.35;;;;;;;11.66;100.00;101359.94;10358433;28;20026;-80
2022/10/13 17:56:43;;;;;;;46.05;30.77;;;;;;;11.66;100.00;101355.59;10339418;28;20060;-78
2022/10/13 18:01:43;;;;;;;43.83;30.75;;;;;;;11.66;100.00;101359.94;10356011;28;20045;-79
2022/10/13 18:06:44;;;;;;;50.20;28.42;;;;;;;11.64;100.00;101361.59;10356715;28;20038;-79
2022/10/13 18:11:46;;;;;;;40.40;27.40;;;;;;;11.60;100.00;101358.81;10340952;28;20490;-80
2022/10/13 18:16:47;;;;;;;47.35;28.70;;;;;;;11.60;100.00;101361.44;10322487;28;20103;-81
2022/10/13 18:21:48;;;;;;;37.03;23.83;;;;;;;11.62;100.00;101366.75;10328274;28;20065;-80
2022/10/13 18:26:48;;;;;;;32.25;23.30;;;;;;;11.60;100.00;101369.31;10319410;28;20092;-81
2022/10/13 18:31:49;;;;;;;27.55;22.10;;;;;;;11.52;100.00;101367.09;10308099;28;20073;-79
2022/10/13 18:36:52;;;;;;;43.70;22.40;;;;;;;11.51;100.00;101353.09;10337452;28;20038;-80
2022/10/13 18:41:54;;;;;;;29.98;18.98;;;;;;;11.54;100.00;101357.59;10325272;28;20041;-80
2022/10/13 18:46:55;;;;;;;31.77;19.47;;;;;;;11.48;100.00;101367.75;10336402;28;20054;-79
2022/10/13 18:51:57;;;;;;;21.30;15.35;;;;;;;11.44;100.00;101371.94;10349159;28;20273;-80
2022/10/13 18:56:57;;;;;;;24.43;17.63;;;;;;;11.38;100.00;101369.91;10338597;28;20026;-78
2022/10/13 19:01:58;;;;;;;24.48;14.65;;;;;;;11.33;100.00;101374.00;10358172;28;20069;-80
2022/10/13 19:06:58;;;;;;;21.45;14.57;;;;;;;11.29;100.00;101370.31;10356325;28;20176;-79
2022/10/13 19:11:59;;;;;;;28.80;18.00;;;;;;;11.22;100.00;101381.31;10355396;28;20103;-78
2022/10/13 19:16:59;;;;;;;24.52;14.48;;;;;;;11.23;100.00;101382.19;10344381;28;20039;-77
2022/10/13 19:22:01;;;;;;;26.48;13.98;;;;;;;11.15;100.00;101377.44;10344089;28;20043;-77
2022/10/13 19:27:01;;;;;;;21.38;15.25;;;;;;;11.12;100.00;101387.75;10345703;28;20041;-78
2022/10/13 19:32:02;;;;;;;19.65;12.13;;;;;;;11.05;100.00;101375.16;10354735;28;20389;-77
2022/10/13 19:37:04;;;;;;;24.15;12.63;;;;;;;11.07;100.00;101375.25;10362453;28;24413;-79
2022/10/13 19:42:05;;;;;;;24.73;12.80;;;;;;;11.01;100.00;101376.72;10363202;28;20163;-79
2022/10/13 19:47:05;;;;;;;20.83;12.60;;;;;;;10.96;100.00;101377.25;10362132;28;20069;-79
2022/10/13 19:52:06;;;;;;;17.25;10.63;;;;;;;10.92;100.00;101380.53;10361316;28;20032;-80
2022/10/13 19:57:06;;;;;;;22.17;12.88;;;;;;;10.91;100.00;101383.97;10360134;28;20037;-79
2022/10/13 20:02:08;;;;;;;29.10;13.55;;;;;;;10.92;100.00;101385.78;10362744;28;20037;-79
2022/10/13 20:07:09;;;;;;;17.83;12.38;;;;;;;10.93;100.00;101380.63;10343082;28;20038;-79
2022/10/13 20:12:09;;;;;;;18.77;11.98;;;;;;;10.91;100.00;101382.28;10363245;28;20046;-79
2022/10/13 20:17:10;;;;;;;19.08;11.80;;;;;;;10.83;100.00;101373.97;10358748;28;20121;-79
2022/10/13 20:22:10;;;;;;;51.50;14.88;;;;;;;10.85;100.00;101385.44;10360503;28;20041;-79
2022/10/13 20:27:11;;;;;;;21.20;9.43;;;;;;;10.81;100.00;101390.44;10360974;28;20065;-78
2022/10/13 20:32:13;;;;;;;18.67;12.07;;;;;;;10.78;100.00;101391.16;10360723;28;20087;-79
2022/10/13 20:37:14;;;;;;;24.38;10.32;;;;;;;10.71;100.00;101378.53;10342050;28;20038;-80
2022/10/13 20:42:14;;;;;;;21.02;12.75;;;;;;;10.70;100.00;101377.66;10358118;28;20509;-79
2022/10/13 20:47:15;;;;;;;15.95;10.77;;;;;;;10.70;100.00;101381.97;10359171;28;20038;-79
2022/10/13 20:52:15;;;;;;;16.77;10.05;;;;;;;10.73;100.00;101387.38;10358294;28;20466;-79
2022/10/13 20:57:16;;;;;;;22.35;12.45;;;;;;;10.72;100.00;101383.88;10359156;28;20048;-79
2022/10/13 21:02:16;;;;;;;28.25;10.13;;;;;;;10.75;100.00;101387.47;10342848;28;20390;-80
2022/10/13 21:07:17;;;;;;;15.00;9.63;;;;;;;10.75;100.00;101384.88;10356685;28;20046;-79
2022/10/13 21:12:18;;;;;;;18.13;11.52;;;;;;;10.71;100.00;101381.16;10340966;28;20044;-79
2022/10/13 21:17:18;;;;;;;20.58;11.82;;;;;;;10.77;100.00;101385.84;10358869;28;20076;-79
2022/10/13 21:22:19;;;;;;;20.13;9.55;;;;;;;10.75;100.00;101384.88;10359694;28;20037;-79
2022/10/13 21:27:19;;;;;;;17.77;9.90;;;;;;;10.75;100.00;101383.13;10358754;28;20056;-79
2022/10/13 21:32:20;;;;;;;37.40;11.98;;;;;;;10.79;100.00;101387.72;10358117;28;20034;-79
2022/10/13 21:37:20;;;;;;;15.35;8.73;;;;;;;10.77;100.00;101389.34;10357314;28;20242;-80
2022/10/13 21:42:21;;;;;;;20.60;11.15;;;;;;;10.83;100.00;101389.69;10356016;28;20041;-79
2022/10/13 21:47:21;;;;;;;16.85;9.68;;;;;;;10.79;100.00;101387.72;10352971;28;20513;-78
2022/10/13 21:52:22;;;;;;;13.38;9.68;;;;;;;10.75;100.00;101380.50;10356179;28;20062;-79
2022/10/13 21:57:23;;;;;;;18.23;8.43;;;;;;;10.76;100.00;101373.56;10323826;28;20494;-79
2022/10/13 22:02:24;;;;;;;19.58;11.07;;;;;;;10.74;100.00;101377.81;10357258;28;20069;-79
2022/10/13 22:07:24;;;;;;;17.40;10.23;;;;;;;10.71;100.00;101373.31;10356406;28;20045;-79
2022/10/13 22:12:25;;;;;;;21.67;12.68;;;;;;;10.71;100.00;101371.59;10357505;28;20121;-78
2022/10/13 22:17:25;;;;;;;15.80;11.23;;;;;;;10.70;100.00;101376.75;10355271;28;20129;-78
2022/10/13 22:22:26;;;;;;;18.17;11.40;;;;;;;10.69;100.00;101367.09;10355727;28;20542;-78
2022/10/13 22:27:26;;;;;;;22.02;12.52;;;;;;;10.71;100.00;101363.75;10355354;28;20125;-78
2022/10/13 22:32:27;;;;;;;23.23;13.07;;;;;;;10.70;100.00;101353.19;10355882;28;20049;-78
2022/10/13 22:37:27;;;;;;;19.55;14.30;;;;;;;10.67;100.00;101350.41;10357108;28;20064;-77